Tasman Mariner — VRWW8 — position and weather

sailwx.info

Track history (hours):
 
Tides and Currents Weather Stations Pressure Air Temp Water Temp Dewpoint Dewpoint Depression Visibility Wind Speed Wind Dir Waves Ship Positions

Tasman Mariner

Last reported at 2015-Mar-29 04:13 UTC. Time now 2015-Mar-29 19:37 UTC.
Position S 37°58' E 149°35'.

Length 184 m; beam 27 m; draft 10 m.

Type: Cargo ship. MMSI: 477860000.

Date/timePositionNaut miles runAvg speedWind from/ knotsBaromVisibWave heightAir tempDewpointWater temp
2015-Mar-29 04:13S 37°58' E 149°35'1213.5
2015-Mar-29 03:20S 38°05' E 149°23'1113.8
2015-Mar-29 02:33S 38°12' E 149°12'1413.9
2015-Mar-29 01:33S 38°20' E 148°58'1414.0
2015-Mar-29 00:33S 38°29' E 148°44'1413.7
2015-Mar-28 23:30S 38°38' E 148°30'1313.4
2015-Mar-28 22:32S 38°46' E 148°17'  
2015-Mar-26 11:05S 38°53' E 145°33'5 9.3
2015-Mar-26 10:33S 38°55' E 145°38'9 8.9
2015-Mar-26 09:33S 38°60' E 145°48'9 8.9
2015-Mar-26 08:33S 39°04' E 145°58'8 8.4
2015-Mar-26 07:33S 39°08' E 146°08'9 9.1
2015-Mar-26 06:33S 39°12' E 146°18'1010.2
2015-Mar-26 05:33S 39°09' E 146°31'1010.5
2015-Mar-26 04:33S 39°05' E 146°44'1110.7
2015-Mar-26 03:33S 39°02' E 146°57'1010.4
2015-Mar-26 02:33S 38°59' E 147°10'1111.0
2015-Mar-26 01:33S 38°55' E 147°23'5412.6
2015-Mar-25 21:16S 38°35' E 148°27'1014.3
2015-Mar-25 20:34S 38°29' E 148°38'1814.7
2015-Mar-25 19:20S 38°19' E 148°57'2815.5
2015-Mar-25 17:33S 38°03' E 149°26'1616.0
2015-Mar-25 16:33S 37°54' E 149°43'1615.9
2015-Mar-25 15:33S 37°45' E 149°59'1615.9
2015-Mar-25 14:33S 37°35' E 150°14'1716.6
2015-Mar-25 13:32S 37°19' E 150°23'1616.8
2015-Mar-25 12:33S 37°04' E 150°31'27315.2
2015-Mar-24 18:33S 32°53' E 152°42'1211.6
2015-Mar-24 17:33S 32°43' E 152°47'1612.3
2015-Mar-24 16:17S 32°28' E 152°54'56414.0
2015-Mar-23 00:00S 23°12' E 154°42'29012.1 110 / 101018.210.8 1.029.521.430.0
2015-Mar-22 00:00S 18°30' E 155°54'   1015.710.8 1.529.024.831.0
Track history (hours):
 
Tides and Currents Weather Stations Pressure Air Temp Water Temp Dewpoint Dewpoint Depression Visibility Wind Speed Wind Dir Waves Ship Positions

Tasman Mariner

Last reported at 2015-Mar-29 04:13 UTC. Time now 2015-Mar-29 19:37 UTC.
Position S 37°58' E 149°35'.

Length 184 m; beam 27 m; draft 10 m.

Type: Cargo ship. MMSI: 477860000.

Date/timePositionNaut miles runAvg speedWind from/ knotsBaromVisibWave heightAir tempDewpointWater temp
2015-Mar-29 04:13S 37°58' E 149°35'1213.5
2015-Mar-29 03:20S 38°05' E 149°23'1113.8
2015-Mar-29 02:33S 38°12' E 149°12'1413.9
2015-Mar-29 01:33S 38°20' E 148°58'1414.0
2015-Mar-29 00:33S 38°29' E 148°44'1413.7
2015-Mar-28 23:30S 38°38' E 148°30'1313.4
2015-Mar-28 22:32S 38°46' E 148°17'  
2015-Mar-26 11:05S 38°53' E 145°33'5 9.3
2015-Mar-26 10:33S 38°55' E 145°38'9 8.9
2015-Mar-26 09:33S 38°60' E 145°48'9 8.9
2015-Mar-26 08:33S 39°04' E 145°58'8 8.4
2015-Mar-26 07:33S 39°08' E 146°08'9 9.1
2015-Mar-26 06:33S 39°12' E 146°18'1010.2
2015-Mar-26 05:33S 39°09' E 146°31'1010.5
2015-Mar-26 04:33S 39°05' E 146°44'1110.7
2015-Mar-26 03:33S 39°02' E 146°57'1010.4
2015-Mar-26 02:33S 38°59' E 147°10'1111.0
2015-Mar-26 01:33S 38°55' E 147°23'5412.6
2015-Mar-25 21:16S 38°35' E 148°27'1014.3
2015-Mar-25 20:34S 38°29' E 148°38'1814.7
2015-Mar-25 19:20S 38°19' E 148°57'2815.5
2015-Mar-25 17:33S 38°03' E 149°26'1616.0
2015-Mar-25 16:33S 37°54' E 149°43'1615.9
2015-Mar-25 15:33S 37°45' E 149°59'1615.9
2015-Mar-25 14:33S 37°35' E 150°14'1716.6
2015-Mar-25 13:32S 37°19' E 150°23'1616.8
2015-Mar-25 12:33S 37°04' E 150°31'27315.2
2015-Mar-24 18:33S 32°53' E 152°42'1211.6
2015-Mar-24 17:33S 32°43' E 152°47'1612.3
2015-Mar-24 16:17S 32°28' E 152°54'56414.0
2015-Mar-23 00:00S 23°12' E 154°42'29012.1 110 / 101018.210.8 1.029.521.430.0
2015-Mar-22 00:00S 18°30' E 155°54'   1015.710.8 1.529.024.831.0

Dump ship's entire track history